sensor_id;sensor_type;location;lat;lon;timestamp;temperature;humidity
13721;DHT22;6932;51.438;5.470;2023-12-07T22:00:16;6.10;99.90
13721;DHT22;6932;51.438;5.470;2023-12-07T22:02:43;6.80;99.90
13721;DHT22;6932;51.438;5.470;2023-12-07T22:05:09;7.10;99.90
13721;DHT22;6932;51.438;5.470;2023-12-07T22:07:34;7.20;99.90
13721;DHT22;6932;51.438;5.470;2023-12-07T22:10:00;7.40;99.90
13721;DHT22;6932;51.438;5.470;2023-12-07T22:12:26;7.60;99.90
13721;DHT22;6932;51.438;5.470;2023-12-07T22:14:51;7.70;99.90
13721;DHT22;6932;51.438;5.470;2023-12-07T22:17:17;7.80;99.90
13721;DHT22;6932;51.438;5.470;2023-12-07T22:19:43;7.80;99.90
13721;DHT22;6932;51.438;5.470;2023-12-07T22:22:08;7.90;99.90
13721;DHT22;6932;51.438;5.470;2023-12-07T22:24:34;7.90;99.90
13721;DHT22;6932;51.438;5.470;2023-12-07T22:27:02;7.90;99.90
13721;DHT22;6932;51.438;5.470;2023-12-07T22:29:28;8.00;99.90
13721;DHT22;6932;51.438;5.470;2023-12-07T22:31:54;8.00;99.90
13721;DHT22;6932;51.438;5.470;2023-12-07T22:34:19;8.10;99.90
13721;DHT22;6932;51.438;5.470;2023-12-07T22:36:46;8.10;99.90
13721;DHT22;6932;51.438;5.470;2023-12-07T22:39:12;8.10;99.90
13721;DHT22;6932;51.438;5.470;2023-12-07T22:41:37;8.10;99.90
13721;DHT22;6932;51.438;5.470;2023-12-07T22:44:03;8.10;99.90
13721;DHT22;6932;51.438;5.470;2023-12-07T22:46:29;8.20;99.90
13721;DHT22;6932;51.438;5.470;2023-12-07T22:48:54;8.20;99.90
13721;DHT22;6932;51.438;5.470;2023-12-07T22:51:20;8.20;99.90
13721;DHT22;6932;51.438;5.470;2023-12-07T22:53:46;8.20;99.90
13721;DHT22;6932;51.438;5.470;2023-12-07T22:56:12;8.20;99.90
13721;DHT22;6932;51.438;5.470;2023-12-07T22:58:37;8.30;99.90
13721;DHT22;6932;51.438;5.470;2023-12-07T23:01:03;8.30;99.90
13721;DHT22;6932;51.438;5.470;2023-12-07T23:03:29;8.30;99.90
13721;DHT22;6932;51.438;5.470;2023-12-07T23:05:55;8.30;99.90
13721;DHT22;6932;51.438;5.470;2023-12-07T23:08:21;8.30;99.90
13721;DHT22;6932;51.438;5.470;2023-12-07T23:10:46;8.30;99.90
13721;DHT22;6932;51.438;5.470;2023-12-07T23:13:12;8.30;99.90
13721;DHT22;6932;51.438;5.470;2023-12-07T23:15:38;8.20;99.90
13721;DHT22;6932;51.438;5.470;2023-12-07T23:18:03;8.30;99.90
13721;DHT22;6932;51.438;5.470;2023-12-07T23:20:29;8.30;99.90
13721;DHT22;6932;51.438;5.470;2023-12-07T23:22:55;8.30;99.90
13721;DHT22;6932;51.438;5.470;2023-12-07T23:25:21;8.30;99.90
13721;DHT22;6932;51.438;5.470;2023-12-07T23:27:47;8.30;99.90
13721;DHT22;6932;51.438;5.470;2023-12-07T23:30:13;8.30;99.90
13721;DHT22;6932;51.438;5.470;2023-12-07T23:32:39;8.30;99.90
13721;DHT22;6932;51.438;5.470;2023-12-07T23:35:06;8.30;99.90
13721;DHT22;6932;51.438;5.470;2023-12-07T23:37:32;8.30;99.90
13721;DHT22;6932;51.438;5.470;2023-12-07T23:39:58;8.30;99.90
13721;DHT22;6932;51.438;5.470;2023-12-07T23:42:24;8.30;99.90
13721;DHT22;6932;51.438;5.470;2023-12-07T23:44:51;8.30;99.90
13721;DHT22;6932;51.438;5.470;2023-12-07T23:47:16;8.30;99.90
13721;DHT22;6932;51.438;5.470;2023-12-07T23:49:42;8.30;99.90
13721;DHT22;6932;51.438;5.470;2023-12-07T23:52:08;8.30;99.90
13721;DHT22;6932;51.438;5.470;2023-12-07T23:54:34;8.30;99.90
13721;DHT22;6932;51.438;5.470;2023-12-07T23:56:59;8.30;99.90
13721;DHT22;6932;51.438;5.470;2023-12-07T23:59:25;8.30;99.90
